Time;durP1;ratioP1;P1;durP2;ratioP2;P2;SDS_P1;SDS_P2;PMS_P1;PMS_P2;Temp;Humidity;BMP_temperature;BMP_pressure;BME280_temperature;BME280_humidity;BME280_pressure;Samples;Min_cycle;Max_cycle;Signal;HPM_P1;HPM_P2
2023/01/16 00:01:40;;;;;;;;;;;5.70;99.90;;;;;;5072233;28;20416;-71
2023/01/16 00:04:06;;;;;;;;;;;5.70;99.90;;;;;;5070977;28;20298;-71
2023/01/16 00:06:31;;;;;;;;;;;5.60;99.90;;;;;;5070179;28;19966;-73
2023/01/16 00:08:57;;;;;;;;;;;5.60;99.90;;;;;;5071912;28;19908;-72
2023/01/16 00:11:22;;;;;;;;;;;5.70;99.90;;;;;;5087477;28;19923;-72
2023/01/16 00:13:47;;;;;;;;;;;5.60;99.90;;;;;;5077163;28;19908;-72
2023/01/16 00:16:13;;;;;;;;;;;5.60;99.90;;;;;;5081883;28;19908;-72
2023/01/16 00:18:38;;;;;;;;;;;5.60;99.90;;;;;;5070625;28;19949;-72
2023/01/16 00:21:04;;;;;;;;;;;7.40;99.90;;;;;;5070584;28;19908;-72
2023/01/16 00:23:30;;;;;;;;;;;5.60;99.90;;;;;;5069248;28;19944;-71
2023/01/16 00:25:55;;;;;;;;;;;5.60;99.90;;;;;;5073804;28;19903;-71
2023/01/16 00:28:21;;;;;;;;;;;5.90;99.90;;;;;;5089011;28;19994;-71
2023/01/16 00:30:46;;;;;;;;;;;5.60;99.90;;;;;;5087305;28;20365;-71
2023/01/16 00:33:12;;;;;;;;;;;7.20;99.90;;;;;;5069915;28;19950;-70
2023/01/16 00:35:38;;;;;;;;;;;5.40;99.90;;;;;;5070684;28;19958;-71
2023/01/16 00:38:03;;;;;;;;;;;5.50;99.90;;;;;;5070300;28;20285;-71
2023/01/16 00:40:29;;;;;;;;;;;5.50;99.90;;;;;;5074052;28;19994;-70
2023/01/16 00:42:54;;;;;;;;;;;5.60;99.90;;;;;;5076486;28;19926;-71
2023/01/16 00:45:20;;;;;;;;;;;5.50;99.90;;;;;;5083483;28;19966;-71
2023/01/16 00:47:45;;;;;;;;;;;5.50;99.90;;;;;;5071059;28;19904;-71
2023/01/16 00:50:11;;;;;;;;;;;5.50;99.90;;;;;;5074126;28;19927;-71
2023/01/16 00:52:36;;;;;;;;;;;5.50;99.90;;;;;;5074661;28;19912;-71
2023/01/16 00:55:02;;;;;;;;;;;5.50;99.90;;;;;;5074577;28;19904;-71
2023/01/16 00:57:27;;;;;;;;;;;5.50;99.90;;;;;;5074459;28;19912;-71
2023/01/16 00:59:53;;;;;;;;;;;5.60;99.90;;;;;;5074670;28;19912;-71
2023/01/16 01:02:18;;;;;;;;;;;5.50;99.90;;;;;;5074066;28;19985;-71
2023/01/16 01:04:44;;;;;;;;;;;5.50;99.90;;;;;;5074442;28;19908;-71
2023/01/16 01:07:09;;;;;;;;;;;5.40;99.90;;;;;;5074297;28;19908;-71
2023/01/16 01:09:35;;;;;;;;;;;5.40;99.90;;;;;;5074833;28;20406;-71
2023/01/16 01:12:00;;;;;;;;;;;5.30;99.90;;;;;;5076359;28;19916;-70
2023/01/16 01:14:26;;;;;;;;;;;5.10;99.90;;;;;;5087134;28;19955;-71
2023/01/16 01:16:51;;;;;;;;;;;5.30;99.90;;;;;;5082605;28;19904;-71
2023/01/16 01:19:17;;;;;;;;;;;5.30;99.90;;;;;;5090980;28;20352;-71
2023/01/16 01:21:42;;;;;;;;;;;5.20;99.90;;;;;;5074233;28;19905;-71
2023/01/16 01:24:08;;;;;;;;;;;5.30;99.90;;;;;;5075724;28;19904;-71
2023/01/16 01:26:33;;;;;;;;;;;5.30;99.90;;;;;;5093818;28;19904;-71
2023/01/16 01:28:59;;;;;;;;;;;5.30;99.90;;;;;;5093116;28;19904;-71
2023/01/16 01:31:24;;;;;;;;;;;5.10;99.90;;;;;;5092787;28;20429;-71
2023/01/16 01:33:50;;;;;;;;;;;5.20;99.90;;;;;;5092538;28;19911;-71
2023/01/16 01:36:15;;;;;;;;;;;5.20;99.90;;;;;;5093340;28;20444;-71
2023/01/16 01:38:41;;;;;;;;;;;5.20;99.90;;;;;;5093044;28;19904;-71
2023/01/16 01:41:06;;;;;;;;;;;5.20;99.90;;;;;;5092217;28;19911;-71
2023/01/16 01:43:39;;;;;;;;;;;5.20;99.90;;;;;;5089839;28;20288;-71
2023/01/16 01:46:05;;;;;;;;;;;5.20;99.90;;;;;;5091120;28;20004;-71
2023/01/16 01:48:39;;;;;;;;;;;5.20;99.90;;;;;;5090982;28;19939;-71
2023/01/16 01:51:08;;;;;;;;;;;5.20;99.90;;;;;;5091851;28;20118;-71
2023/01/16 01:53:36;;;;;;;;;;;5.20;99.90;;;;;;5091149;28;20280;-71
2023/01/16 01:56:05;;;;;;;;;;;5.30;99.90;;;;;;5091884;28;20353;-71
2023/01/16 01:58:32;;;;;;;;;;;5.20;99.90;;;;;;5090515;28;19905;-70
2023/01/16 02:00:59;;;;;;;;;;;5.30;99.90;;;;;;5091071;28;19958;-70
2023/01/16 02:03:28;;;;;;;;;;;5.30;99.90;;;;;;5091003;28;19908;-71
2023/01/16 02:05:57;;;;;;;;;;;5.20;99.90;;;;;;5091873;28;19999;-71
2023/01/16 02:08:24;;;;;;;;;;;5.20;99.90;;;;;;5091391;28;19911;-70
2023/01/16 02:10:58;;;;;;;;;;;5.10;99.90;;;;;;5086830;28;19916;-71
2023/01/16 02:13:24;;;;;;;;;;;5.20;99.90;;;;;;5071774;28;19908;-71
2023/01/16 02:21:33;;;;;;;;;;;5.40;99.90;;;;;;5077855;28;20041;-71
2023/01/16 02:24:13;;;;;;;;;;;5.10;99.90;;;;;;5090876;28;19904;-71
2023/01/16 02:26:45;;;;;;;;;;;5.10;99.90;;;;;;5091593;28;19953;-71
2023/01/16 02:29:29;;;;;;;;;;;5.00;99.90;;;;;;5080954;28;20364;-71
2023/01/16 02:31:55;;;;;;;;;;;4.90;99.90;;;;;;5091725;28;19916;-71
2023/01/16 02:34:43;;;;;;;;;;;4.70;99.90;;;;;;5090535;28;19913;-71
2023/01/16 02:37:23;;;;;;;;;;;4.60;99.90;;;;;;5090868;28;19912;-71
2023/01/16 02:40:05;;;;;;;;;;;4.50;99.90;;;;;;5091418;28;19904;-70
2023/01/16 02:42:42;;;;;;;;;;;4.40;99.90;;;;;;5054888;28;1037110;-70
2023/01/16 02:45:18;;;;;;;;;;;4.30;99.90;;;;;;5088846;28;20638;-71
2023/01/16 02:47:44;;;;;;;;;;;4.20;99.90;;;;;;5091887;28;20261;-71
2023/01/16 02:50:15;;;;;;;;;;;5.00;99.90;;;;;;5090062;28;19908;-71
2023/01/16 02:53:00;;;;;;;;;;;4.00;99.90;;;;;;5091546;28;19915;-71
2023/01/16 02:55:32;;;;;;;;;;;4.00;99.90;;;;;;5086340;28;19954;-71
2023/01/16 02:57:59;;;;;;;;;;;3.80;99.90;;;;;;5083912;28;19904;-71
2023/01/16 03:00:25;;;;;;;;;;;3.90;99.90;;;;;;5091159;28;19957;-71
2023/01/16 03:02:50;;;;;;;;;;;4.70;99.90;;;;;;5089705;28;19904;-71
2023/01/16 03:05:16;;;;;;;;;;;3.70;99.90;;;;;;5090813;28;19915;-70
2023/01/16 03:07:52;;;;;;;;;;;3.70;99.90;;;;;;5089911;28;19959;-70
2023/01/16 03:10:18;;;;;;;;;;;3.70;99.90;;;;;;5081603;28;20361;-71
2023/01/16 03:13:12;;;;;;;;;;;3.70;99.90;;;;;;5085831;28;19908;-71
2023/01/16 03:15:49;;;;;;;;;;;3.70;99.90;;;;;;5008158;28;19909;-72
2023/01/16 03:18:28;;;;;;;;;;;3.70;99.90;;;;;;5018817;28;19924;-71
2023/01/16 03:20:54;;;;;;;;;;;3.70;99.90;;;;;;5018218;28;19905;-71
2023/01/16 03:23:25;;;;;;;;;;;3.60;99.90;;;;;;5026274;28;19916;-71
2023/01/16 03:25:54;;;;;;;;;;;3.70;99.90;;;;;;5009762;28;19988;-71
2023/01/16 03:28:37;;;;;;;;;;;3.70;99.90;;;;;;5015527;28;19980;-71
2023/01/16 03:31:18;;;;;;;;;;;3.70;99.90;;;;;;5009408;28;19909;-71
2023/01/16 03:33:47;;;;;;;;;;;3.60;99.90;;;;;;5011443;28;19952;-71
2023/01/16 03:36:15;;;;;;;;;;;3.60;99.90;;;;;;5017221;28;19941;-71
2023/01/16 03:38:42;;;;;;;;;;;3.50;99.90;;;;;;4994658;28;19910;-71
2023/01/16 03:41:10;;;;;;;;;;;3.50;99.90;;;;;;5012819;28;20366;-71
2023/01/16 03:43:37;;;;;;;;;;;3.20;99.90;;;;;;5008436;28;19987;-71
2023/01/16 03:46:16;;;;;;;;;;;3.50;99.90;;;;;;5017162;28;19912;-71
2023/01/16 03:48:50;;;;;;;;;;;3.40;99.90;;;;;;5005102;28;20260;-71
2023/01/16 03:51:36;;;;;;;;;;;3.40;99.90;;;;;;5018348;28;19913;-71
2023/01/16 03:54:20;;;;;;;;;;;3.40;99.90;;;;;;5085134;28;20002;-71
2023/01/16 03:56:49;;;;;;;;;;;3.40;99.90;;;;;;5084911;28;19999;-71
2023/01/16 03:59:15;;;;;;;;;;;3.30;99.90;;;;;;5089549;28;19904;-71
2023/01/16 04:01:53;;;;;;;;;;;3.40;99.90;;;;;;5087822;28;19912;-71
2023/01/16 04:04:37;;;;;;;;;;;3.30;99.90;;;;;;5088050;28;20314;-71
2023/01/16 04:07:06;;;;;;;;;;;3.10;99.90;;;;;;5079127;28;20007;-71
2023/01/16 04:09:31;;;;;;;;;;;3.30;99.90;;;;;;5083221;28;20385;-71
2023/01/16 04:11:58;;;;;;;;;;;3.40;99.90;;;;;;5078688;28;19939;-71
2023/01/16 04:14:24;;;;;;;;;;;3.30;99.90;;;;;;5090124;28;19904;-71
2023/01/16 04:16:50;;;;;;;;;;;3.50;99.90;;;;;;5090661;28;19904;-71
2023/01/16 04:19:17;;;;;;;;;;;3.40;99.90;;;;;;5076850;28;20357;-71
2023/01/16 04:21:44;;;;;;;;;;;3.20;99.90;;;;;;5090924;28;19942;-71
2023/01/16 04:24:10;;;;;;;;;;;3.30;99.90;;;;;;5076706;28;19905;-71
2023/01/16 04:26:36;;;;;;;;;;;3.50;99.90;;;;;;5090452;28;19927;-71
2023/01/16 04:29:01;;;;;;;;;;;3.70;99.90;;;;;;5090143;28;19989;-71
2023/01/16 04:31:28;;;;;;;;;;;3.70;99.90;;;;;;5090536;28;20371;-71
2023/01/16 04:33:53;;;;;;;;;;;3.70;99.90;;;;;;5090228;28;20369;-71
2023/01/16 04:36:19;;;;;;;;;;;3.70;99.90;;;;;;5080691;28;19908;-71
2023/01/16 04:38:44;;;;;;;;;;;3.70;99.90;;;;;;5074286;28;19912;-71
2023/01/16 04:41:10;;;;;;;;;;;3.60;99.90;;;;;;5069735;28;19970;-71
2023/01/16 04:43:35;;;;;;;;;;;3.60;99.90;;;;;;5086323;28;20261;-71
2023/01/16 04:46:01;;;;;;;;;;;3.60;99.90;;;;;;5089060;28;19950;-71
2023/01/16 04:48:26;;;;;;;;;;;3.60;99.90;;;;;;5089951;28;19919;-71
2023/01/16 04:50:51;;;;;;;;;;;3.60;99.90;;;;;;5090493;28;19914;-71
2023/01/16 04:53:17;;;;;;;;;;;3.60;99.90;;;;;;5087624;28;19911;-71
2023/01/16 04:55:42;;;;;;;;;;;3.60;99.90;;;;;;5070041;28;20425;-71
2023/01/16 04:58:08;;;;;;;;;;;3.50;99.90;;;;;;5084270;28;19904;-71
2023/01/16 05:00:33;;;;;;;;;;;3.80;99.90;;;;;;5080293;28;19999;-71
2023/01/16 05:02:59;;;;;;;;;;;3.60;99.90;;;;;;5085428;28;19904;-71
2023/01/16 05:05:25;;;;;;;;;;;3.60;99.90;;;;;;5083825;28;19908;-71
2023/01/16 05:08:15;;;;;;;;;;;3.50;99.90;;;;;;5074854;28;20353;-71
2023/01/16 05:10:35;;;;;;;;;;;3.50;99.90;;;;;;5077199;28;19939;-71
2023/01/16 05:13:01;;;;;;;;;;;3.50;99.90;;;;;;5087256;28;19912;-71
2023/01/16 05:15:26;;;;;;;;;;;3.50;99.90;;;;;;5089503;28;20345;-71
2023/01/16 05:17:53;;;;;;;;;;;3.50;99.90;;;;;;5088645;28;19908;-71
2023/01/16 05:20:19;;;;;;;;;;;3.50;99.90;;;;;;5089178;28;19908;-71
2023/01/16 05:22:44;;;;;;;;;;;3.60;99.90;;;;;;5088525;28;20014;-71
2023/01/16 05:25:10;;;;;;;;;;;3.50;99.90;;;;;;5087121;28;20416;-71
2023/01/16 05:27:35;;;;;;;;;;;3.50;99.90;;;;;;5087869;28;20634;-71
2023/01/16 05:30:00;;;;;;;;;;;3.50;99.90;;;;;;5073647;28;19908;-70
2023/01/16 05:32:26;;;;;;;;;;;3.60;99.90;;;;;;5085898;28;19962;-70
2023/01/16 05:34:51;;;;;;;;;;;3.60;99.90;;;;;;5101957;28;19912;-71
2023/01/16 05:37:17;;;;;;;;;;;3.70;99.90;;;;;;5086885;28;19973;-71
2023/01/16 05:39:42;;;;;;;;;;;3.70;99.90;;;;;;5091192;28;19904;-71
2023/01/16 05:42:20;;;;;;;;;;;3.60;99.90;;;;;;5087350;28;19923;-71
2023/01/16 05:44:47;;;;;;;;;;;3.70;99.90;;;;;;5091066;28;20401;-71
2023/01/16 05:47:13;;;;;;;;;;;3.80;99.90;;;;;;5086911;28;19936;-71
2023/01/16 05:49:38;;;;;;;;;;;3.70;99.90;;;;;;5090572;28;20000;-71
2023/01/16 05:52:04;;;;;;;;;;;4.00;99.90;;;;;;5077123;28;19973;-71
2023/01/16 05:54:29;;;;;;;;;;;3.90;99.90;;;;;;5086428;28;19912;-71
2023/01/16 05:56:55;;;;;;;;;;;4.00;99.90;;;;;;5079879;28;19912;-71
2023/01/16 05:59:20;;;;;;;;;;;4.00;99.90;;;;;;5080119;28;19915;-71
2023/01/16 06:01:45;;;;;;;;;;;4.10;99.90;;;;;;5076864;28;20418;-71
2023/01/16 06:04:11;;;;;;;;;;;4.10;99.90;;;;;;5076876;28;20140;-71
2023/01/16 06:06:36;;;;;;;;;;;4.10;99.90;;;;;;5076553;28;19951;-71
2023/01/16 06:09:02;;;;;;;;;;;4.10;99.90;;;;;;5076688;28;19950;-71
2023/01/16 06:11:27;;;;;;;;;;;4.20;99.90;;;;;;5074062;28;19923;-71
2023/01/16 06:13:53;;;;;;;;;;;4.20;99.90;;;;;;5072980;28;19915;-71
2023/01/16 06:16:18;;;;;;;;;;;4.20;99.90;;;;;;5072293;28;19908;-70
2023/01/16 06:18:44;;;;;;;;;;;4.20;99.90;;;;;;5072742;28;19946;-70
2023/01/16 06:21:09;;;;;;;;;;;4.20;99.90;;;;;;5072554;28;19943;-70
2023/01/16 06:23:35;;;;;;;;;;;4.20;99.90;;;;;;5072701;28;19908;-69
2023/01/16 06:26:01;;;;;;;;;;;4.20;99.90;;;;;;5083892;28;19908;-70
2023/01/16 06:28:26;;;;;;;;;;;4.30;99.90;;;;;;5072950;28;19911;-70
2023/01/16 06:30:52;;;;;;;;;;;4.30;99.90;;;;;;5073559;28;19912;-70
2023/01/16 06:33:17;;;;;;;;;;;4.30;99.90;;;;;;5072734;28;19905;-69
2023/01/16 06:35:43;;;;;;;;;;;4.40;99.90;;;;;;5072623;28;19908;-70
2023/01/16 06:38:08;;;;;;;;;;;4.40;99.90;;;;;;5072279;28;19904;-70
2023/01/16 06:40:34;;;;;;;;;;;4.40;99.90;;;;;;5073840;28;19983;-70
2023/01/16 06:42:59;;;;;;;;;;;4.20;99.90;;;;;;5072975;28;20023;-70
2023/01/16 06:45:25;;;;;;;;;;;4.40;99.90;;;;;;5075048;28;19908;-69
2023/01/16 06:47:51;;;;;;;;;;;4.40;99.90;;;;;;5081428;28;19904;-70
2023/01/16 06:50:16;;;;;;;;;;;4.40;99.90;;;;;;5072438;28;19961;-70
2023/01/16 06:52:41;;;;;;;;;;;4.60;99.90;;;;;;5073088;28;19998;-70
2023/01/16 06:55:07;;;;;;;;;;;4.50;99.90;;;;;;5079651;28;20686;-70
2023/01/16 06:57:34;;;;;;;;;;;4.50;99.90;;;;;;5079264;28;20002;-70
2023/01/16 06:59:59;;;;;;;;;;;4.50;99.90;;;;;;5075470;28;20315;-70
2023/01/16 07:02:24;;;;;;;;;;;4.60;99.90;;;;;;5072886;28;19912;-70
2023/01/16 07:04:50;;;;;;;;;;;4.50;99.90;;;;;;5073358;28;19928;-70
2023/01/16 07:07:15;;;;;;;;;;;4.60;99.90;;;;;;5072562;28;20360;-70
2023/01/16 07:09:41;;;;;;;;;;;4.50;99.90;;;;;;5073338;28;19908;-70
2023/01/16 07:12:06;;;;;;;;;;;4.60;99.90;;;;;;5071933;28;19967;-69
2023/01/16 07:22:45;;;;;;;;;;;4.70;99.90;;;;;;5075942;28;19910;-70
2023/01/16 07:25:13;;;;;;;;;;;4.60;99.90;;;;;;5080077;28;20001;-69
2023/01/16 07:27:39;;;;;;;;;;;4.60;99.90;;;;;;5088969;28;19912;-69
2023/01/16 07:30:05;;;;;;;;;;;4.60;99.90;;;;;;5091151;28;19912;-69
2023/01/16 07:32:31;;;;;;;;;;;4.60;99.90;;;;;;5090721;28;19907;-69
2023/01/16 07:34:56;;;;;;;;;;;4.60;99.90;;;;;;5090789;28;19910;-69
2023/01/16 07:37:22;;;;;;;;;;;4.70;99.90;;;;;;5090800;28;19904;-69
2023/01/16 07:39:47;;;;;;;;;;;4.70;99.90;;;;;;5079494;28;19915;-69
2023/01/16 07:42:13;;;;;;;;;;;4.70;99.90;;;;;;5070689;28;19919;-69
2023/01/16 07:44:38;;;;;;;;;;;4.70;99.90;;;;;;5071710;28;19909;-69
2023/01/16 07:47:04;;;;;;;;;;;4.70;99.90;;;;;;5071430;28;20315;-69
2023/01/16 07:49:29;;;;;;;;;;;4.70;99.90;;;;;;5071063;28;19915;-69
2023/01/16 07:51:55;;;;;;;;;;;4.70;99.90;;;;;;5071477;28;20281;-70
2023/01/16 07:54:22;;;;;;;;;;;4.70;99.90;;;;;;5071249;28;20357;-70
2023/01/16 07:56:47;;;;;;;;;;;4.70;99.90;;;;;;5071154;28;19904;-70
2023/01/16 07:59:13;;;;;;;;;;;4.70;99.90;;;;;;5070897;28;19905;-70
2023/01/16 08:01:39;;;;;;;;;;;4.70;99.90;;;;;;5071454;28;19965;-68
2023/01/16 08:04:04;;;;;;;;;;;4.70;99.90;;;;;;5081145;28;19908;-68
2023/01/16 08:06:30;;;;;;;;;;;4.70;99.90;;;;;;5069844;28;19962;-68
2023/01/16 08:08:55;;;;;;;;;;;4.70;99.90;;;;;;5089376;28;19904;-68
2023/01/16 08:11:38;;;;;;;;;;;4.80;99.90;;;;;;5100546;28;20369;-69
2023/01/16 08:14:04;;;;;;;;;;;4.80;99.90;;;;;;5102769;28;19904;-69
2023/01/16 08:16:29;;;;;;;;;;;4.70;99.90;;;;;;5084414;28;19904;-69
2023/01/16 08:18:55;;;;;;;;;;;4.70;99.90;;;;;;5079910;28;19912;-69
2023/01/16 08:21:20;;;;;;;;;;;3.50;99.90;;;;;;5084404;28;19904;-69
2023/01/16 08:23:46;;;;;;;;;;;4.70;99.90;;;;;;5084025;28;20006;-70
2023/01/16 08:26:12;;;;;;;;;;;4.70;99.90;;;;;;5084783;28;19907;-69
2023/01/16 08:28:38;;;;;;;;;;;4.80;99.90;;;;;;5096176;28;19935;-69
2023/01/16 08:31:08;;;;;;;;;;;4.80;99.90;;;;;;5095470;28;19951;-69
2023/01/16 08:33:35;;;;;;;;;;;4.80;99.90;;;;;;5107834;28;20317;-69
2023/01/16 08:36:02;;;;;;;;;;;4.70;99.90;;;;;;5087048;28;19904;-69
2023/01/16 08:38:27;;;;;;;;;;;4.80;99.90;;;;;;5085807;28;20296;-69
2023/01/16 08:40:52;;;;;;;;;;;4.80;99.90;;;;;;5085142;28;20409;-69
2023/01/16 08:51:31;;;;;;;;;;;4.80;99.90;;;;;;5080943;28;19949;-69
2023/01/16 08:53:58;;;;;;;;;;;4.90;99.90;;;;;;5080972;28;20347;-69
2023/01/16 08:56:23;;;;;;;;;;;4.90;99.90;;;;;;5076907;28;19904;-69
2023/01/16 08:58:49;;;;;;;;;;;4.90;99.90;;;;;;5079791;28;19904;-68
2023/01/16 09:01:15;;;;;;;;;;;5.00;99.90;;;;;;5077942;28;19934;-69
2023/01/16 09:03:40;;;;;;;;;;;4.90;99.90;;;;;;5076946;28;20091;-70
2023/01/16 09:06:06;;;;;;;;;;;5.00;99.90;;;;;;5076494;28;20324;-69
2023/01/16 09:08:31;;;;;;;;;;;5.00;99.90;;;;;;5095355;28;19970;-69
2023/01/16 09:13:50;;;;;;;;;;;5.00;99.90;;;;;;5102431;28;20629;-69
2023/01/16 09:16:17;;;;;;;;;;;5.00;99.90;;;;;;5110198;28;19908;-69
2023/01/16 09:18:42;;;;;;;;;;;5.10;99.90;;;;;;5101795;28;19953;-69
2023/01/16 09:21:07;;;;;;;;;;;5.10;99.90;;;;;;5098341;28;19919;-70
2023/01/16 09:23:33;;;;;;;;;;;5.10;99.90;;;;;;5104343;28;19915;-69
2023/01/16 09:25:58;;;;;;;;;;;5.20;99.90;;;;;;5100948;28;19908;-69
2023/01/16 09:28:24;;;;;;;;;;;5.20;99.90;;;;;;5077793;28;19939;-69
2023/01/16 09:30:50;;;;;;;;;;;5.20;99.90;;;;;;5079856;28;20345;-69
2023/01/16 09:33:16;;;;;;;;;;;5.20;99.90;;;;;;5098491;28;20002;-69
2023/01/16 09:35:41;;;;;;;;;;;5.20;99.90;;;;;;5112909;28;19994;-69
2023/01/16 09:38:07;;;;;;;;;;;5.20;99.90;;;;;;5100676;28;20386;-69
2023/01/16 09:40:32;;;;;;;;;;;5.20;99.90;;;;;;5102502;28;19943;-69
2023/01/16 09:45:48;;;;;;;;;;;5.50;99.90;;;;;;5074049;28;19918;-69
2023/01/16 09:48:33;;;;;;;;;;;5.30;99.90;;;;;;5073783;28;20307;-70
2023/01/16 09:51:03;;;;;;;;;;;5.30;99.90;;;;;;5072796;28;20353;-69
2023/01/16 09:59:18;;;;;;;;;;;5.30;99.90;;;;;;5078412;28;19996;-69
2023/01/16 10:01:47;;;;;;;;;;;5.30;99.90;;;;;;5087343;28;19908;-69
2023/01/16 10:04:20;;;;;;;;;;;5.50;99.90;;;;;;5103649;28;19907;-69
2023/01/16 10:07:06;;;;;;;;;;;5.40;99.90;;;;;;5088922;28;19916;-69
2023/01/16 10:09:50;;;;;;;;;;;5.40;99.90;;;;;;5073313;28;19952;-69
2023/01/16 10:12:15;;;;;;;;;;;5.40;99.90;;;;;;5079610;28;20523;-69
2023/01/16 10:14:51;;;;;;;;;;;5.40;99.90;;;;;;5079975;28;19940;-69
2023/01/16 10:17:23;;;;;;;;;;;5.40;99.90;;;;;;5079268;28;20415;-69
2023/01/16 10:20:01;;;;;;;;;;;5.40;99.90;;;;;;5084071;28;19930;-69
2023/01/16 10:22:26;;;;;;;;;;;5.40;99.90;;;;;;5076625;28;19904;-69
2023/01/16 10:24:59;;;;;;;;;;;5.40;99.90;;;;;;5078143;28;20002;-69
2023/01/16 10:27:34;;;;;;;;;;;5.40;99.90;;;;;;5082362;28;20006;-69
2023/01/16 10:30:05;;;;;;;;;;;5.40;99.90;;;;;;5079537;28;19908;-70
2023/01/16 10:32:33;;;;;;;;;;;5.40;99.90;;;;;;5075980;28;19909;-69
2023/01/16 10:35:19;;;;;;;;;;;5.40;99.90;;;;;;5084550;28;20308;-69
2023/01/16 10:37:45;;;;;;;;;;;5.40;99.90;;;;;;5065476;28;20348;-69
2023/01/16 10:40:13;;;;;;;;;;;5.30;99.90;;;;;;5083330;28;20461;-69
2023/01/16 10:50:57;;;;;;;;;;;5.40;99.90;;;;;;5081125;28;20038;-69
2023/01/16 10:53:23;;;;;;;;;;;5.40;99.90;;;;;;5085836;28;20018;-69
2023/01/16 10:55:51;;;;;;;;;;;5.40;99.90;;;;;;5089775;28;19911;-70
2023/01/16 10:58:30;;;;;;;;;;;5.40;99.90;;;;;;5085862;28;19915;-69
2023/01/16 11:01:04;;;;;;;;;;;5.40;99.90;;;;;;5088593;28;19908;-69
2023/01/16 11:03:39;;;;;;;;;;;5.40;99.90;;;;;;5088785;28;19912;-69
2023/01/16 11:06:07;;;;;;;;;;;5.50;99.90;;;;;;5089868;28;19912;-70
2023/01/16 11:08:32;;;;;;;;;;;5.50;99.90;;;;;;5082023;28;20269;-70
2023/01/16 11:10:58;;;;;;;;;;;5.50;99.90;;;;;;5074393;28;20479;-69
2023/01/16 11:18:59;;;;;;;;;;;5.50;99.90;;;;;;5073705;28;19954;-70
2023/01/16 11:21:29;;;;;;;;;;;5.50;99.90;;;;;;5073180;28;19950;-69
2023/01/16 11:23:58;;;;;;;;;;;5.60;99.90;;;;;;5080369;28;20137;-70
2023/01/16 11:26:24;;;;;;;;;;;5.60;99.90;;;;;;5080402;28;19912;-70
2023/01/16 11:28:49;;;;;;;;;;;5.60;99.90;;;;;;5084603;28;19904;-70
2023/01/16 11:31:15;;;;;;;;;;;5.10;99.90;;;;;;5081263;28;20010;-70
2023/01/16 11:33:41;;;;;;;;;;;5.80;99.90;;;;;;5085616;28;19908;-70
2023/01/16 11:36:07;;;;;;;;;;;6.10;99.90;;;;;;5081323;28;19909;-70
2023/01/16 11:38:35;;;;;;;;;;;6.30;99.90;;;;;;5086457;28;19912;-70
2023/01/16 11:41:03;;;;;;;;;;;6.50;99.90;;;;;;5080645;28;19991;-69
2023/01/16 11:46:22;;;;;;;;;;;6.70;99.90;;;;;;5088687;28;19911;-70
2023/01/16 11:48:52;;;;;;;;;;;6.60;99.90;;;;;;5088663;28;20305;-70
2023/01/16 11:51:18;;;;;;;;;;;6.60;99.90;;;;;;5090224;28;19951;-69
2023/01/16 11:53:45;;;;;;;;;;;6.50;99.90;;;;;;5090258;28;19904;-70
2023/01/16 11:56:20;;;;;;;;;;;6.40;99.90;;;;;;5089952;28;19904;-70
2023/01/16 11:58:50;;;;;;;;;;;6.30;99.90;;;;;;5075825;28;20072;-70
2023/01/16 12:01:18;;;;;;;;;;;6.20;99.90;;;;;;5089557;28;19904;-69
2023/01/16 12:04:06;;;;;;;;;;;6.20;99.90;;;;;;5082595;28;20023;-70
2023/01/16 12:06:42;;;;;;;;;;;6.30;99.90;;;;;;5085155;28;19920;-69
2023/01/16 12:09:19;;;;;;;;;;;6.40;99.90;;;;;;5077398;28;19955;-69
2023/01/16 12:11:47;;;;;;;;;;;6.50;99.90;;;;;;5089751;28;19916;-69
2023/01/16 12:14:20;;;;;;;;;;;6.50;99.90;;;;;;5088506;28;19946;-69
2023/01/16 12:16:48;;;;;;;;;;;6.60;99.90;;;;;;5086219;28;19912;-69
2023/01/16 12:19:27;;;;;;;;;;;6.60;99.90;;;;;;5088125;28;19972;-68
2023/01/16 12:21:56;;;;;;;;;;;6.60;99.90;;;;;;5090467;28;19912;-69
2023/01/16 12:24:22;;;;;;;;;;;6.70;99.90;;;;;;5101187;28;19903;-69
2023/01/16 12:26:58;;;;;;;;;;;6.80;99.90;;;;;;5099875;28;19908;-69
2023/01/16 12:29:30;;;;;;;;;;;6.80;99.90;;;;;;5082343;28;20006;-69
2023/01/16 12:31:55;;;;;;;;;;;6.80;99.90;;;;;;5077673;28;19919;-70
2023/01/16 12:34:24;;;;;;;;;;;6.80;99.90;;;;;;5079911;28;19912;-70
2023/01/16 12:36:52;;;;;;;;;;;6.80;99.90;;;;;;5072940;28;19908;-69
2023/01/16 12:39:24;;;;;;;;;;;6.80;99.90;;;;;;5079583;28;19904;-69
2023/01/16 12:44:58;;;;;;;;;;;6.80;99.90;;;;;;5098568;28;19915;-69
2023/01/16 12:47:40;;;;;;;;;;;6.80;99.90;;;;;;5099244;28;20369;-69
2023/01/16 12:50:05;;;;;;;;;;;6.70;99.90;;;;;;5103912;28;19912;-69
2023/01/16 12:52:36;;;;;;;;;;;7.80;99.90;;;;;;5088961;28;20246;-69
2023/01/16 12:55:08;;;;;;;;;;;6.90;99.90;;;;;;5105965;28;19911;-68
2023/01/16 12:57:41;;;;;;;;;;;6.90;99.90;;;;;;5084985;28;19911;-69
2023/01/16 13:00:33;;;;;;;;;;;7.00;99.90;;;;;;5079857;28;19904;-69
2023/01/16 13:03:01;;;;;;;;;;;6.90;99.90;;;;;;5083517;28;19987;-69
2023/01/16 13:05:28;;;;;;;;;;;7.00;99.90;;;;;;5085078;28;20274;-68
2023/01/16 13:07:57;;;;;;;;;;;7.00;99.90;;;;;;5091323;28;19908;-69
2023/01/16 13:13:26;;;;;;;;;;;7.10;99.90;;;;;;5088879;28;19914;-69
2023/01/16 13:15:58;;;;;;;;;;;6.90;99.90;;;;;;5095259;28;19922;-70
2023/01/16 13:18:26;;;;;;;;;;;6.90;99.90;;;;;;5079093;28;19910;-69
2023/01/16 13:20:57;;;;;;;;;;;6.80;99.90;;;;;;5088516;28;19962;-69
2023/01/16 13:23:33;;;;;;;;;;;6.70;99.90;;;;;;5079469;28;20023;-69
2023/01/16 13:26:02;;;;;;;;;;;6.70;99.90;;;;;;5081499;28;20280;-69
2023/01/16 13:28:45;;;;;;;;;;;6.60;99.90;;;;;;5091831;28;20206;-69
2023/01/16 13:31:18;;;;;;;;;;;6.70;99.90;;;;;;5085212;28;19916;-69
2023/01/16 13:33:46;;;;;;;;;;;6.60;99.90;;;;;;5082204;28;20389;-69
2023/01/16 13:36:14;;;;;;;;;;;6.60;99.90;;;;;;5082943;28;19951;-70
2023/01/16 13:38:49;;;;;;;;;;;6.50;99.90;;;;;;5087615;28;20003;-70
2023/01/16 13:41:21;;;;;;;;;;;6.70;99.90;;;;;;5084602;28;20341;-69
2023/01/16 13:46:34;;;;;;;;;;;6.60;99.90;;;;;;5075269;28;19910;-69
2023/01/16 13:49:01;;;;;;;;;;;6.50;99.90;;;;;;5075441;28;20349;-69
2023/01/16 13:51:26;;;;;;;;;;;6.50;99.90;;;;;;5083676;28;20419;-69
2023/01/16 13:53:54;;;;;;;;;;;6.30;99.90;;;;;;5092607;28;19947;-69
2023/01/16 13:56:22;;;;;;;;;;;8.20;99.90;;;;;;5108318;28;19904;-69
2023/01/16 13:58:55;;;;;;;;;;;6.50;99.90;;;;;;5093933;28;19904;-70
2023/01/16 14:01:32;;;;;;;;;;;6.40;99.90;;;;;;5101800;28;19908;-69
2023/01/16 14:04:09;;;;;;;;;;;6.40;99.90;;;;;;5102856;28;19904;-69
2023/01/16 14:06:42;;;;;;;;;;;6.40;99.90;;;;;;5078568;28;19912;-69
2023/01/16 14:09:18;;;;;;;;;;;6.40;99.90;;;;;;5082153;28;19911;-69
2023/01/16 14:11:57;;;;;;;;;;;7.00;99.90;;;;;;5085982;28;19999;-69
2023/01/16 14:17:19;;;;;;;;;;;6.30;99.90;;;;;;5078251;28;20002;-69
2023/01/16 14:19:59;;;;;;;;;;;6.20;99.90;;;;;;5078993;28;20297;-69
2023/01/16 14:24:53;;;;;;;;;;;6.20;99.90;;;;;;5075443;28;19908;-69
2023/01/16 14:27:29;;;;;;;;;;;8.10;99.90;;;;;;5076282;28;20264;-69
2023/01/16 14:29:56;;;;;;;;;;;6.10;99.90;;;;;;5077920;28;19919;-69
2023/01/16 14:32:26;;;;;;;;;;;6.10;99.90;;;;;;5091831;28;19913;-69
2023/01/16 14:34:56;;;;;;;;;;;6.00;99.90;;;;;;5104486;28;19904;-69
2023/01/16 14:37:22;;;;;;;;;;;6.00;99.90;;;;;;5103314;28;19904;-70
2023/01/16 14:39:52;;;;;;;;;;;6.00;99.90;;;;;;5082274;28;19928;-70
2023/01/16 14:55:13;;;;;;;;;;;5.90;99.90;;;;;;5076908;28;20372;-69
2023/01/16 14:56:46;;;;;;;;;;;5.80;99.90;;;;;;5080052;28;20011;-69
2023/01/16 14:59:14;;;;;;;;;;;5.80;99.90;;;;;;5095729;28;19911;-70
2023/01/16 15:04:29;;;;;;;;;;;5.90;99.90;;;;;;5079609;28;20037;-70
2023/01/16 15:07:00;;;;;;;;;;;5.80;99.90;;;;;;5075315;28;20000;-70
2023/01/16 15:09:30;;;;;;;;;;;5.70;99.90;;;;;;5074405;28;19917;-69
2023/01/16 15:11:59;;;;;;;;;;;5.80;99.90;;;;;;5080387;28;20383;-69
2023/01/16 15:14:32;;;;;;;;;;;5.80;99.90;;;;;;5088520;28;19924;-69
2023/01/16 15:22:59;;;;;;;;;;;5.80;99.90;;;;;;5070991;28;19915;-69
2023/01/16 15:25:31;;;;;;;;;;;5.80;99.90;;;;;;5090216;28;19908;-69
2023/01/16 15:28:02;;;;;;;;;;;5.90;99.90;;;;;;5095618;28;19973;-69
2023/01/16 15:30:28;;;;;;;;;;;5.70;99.90;;;;;;5091589;28;19933;-69
2023/01/16 15:32:54;;;;;;;;;;;5.80;99.90;;;;;;5086905;28;20021;-69
2023/01/16 15:35:22;;;;;;;;;;;5.80;99.90;;;;;;5084137;28;19966;-69
2023/01/16 15:37:52;;;;;;;;;;;5.80;99.90;;;;;;5102319;28;19959;-69
2023/01/16 15:40:28;;;;;;;;;;;5.80;99.90;;;;;;5088080;28;20307;-69
2023/01/16 15:48:31;;;;;;;;;;;5.70;99.90;;;;;;5080530;28;19962;-69
2023/01/16 15:50:57;;;;;;;;;;;5.80;99.90;;;;;;5074894;28;20364;-70
2023/01/16 15:53:24;;;;;;;;;;;5.60;99.90;;;;;;5090369;28;19978;-70
2023/01/16 15:55:51;;;;;;;;;;;5.70;99.90;;;;;;5096660;28;20402;-71
2023/01/16 15:58:18;;;;;;;;;;;5.80;99.90;;;;;;5104307;28;19904;-69
2023/01/16 16:00:44;;;;;;;;;;;5.80;99.90;;;;;;5098342;28;19923;-70
2023/01/16 16:03:13;;;;;;;;;;;5.80;99.90;;;;;;5083788;28;19908;-69
2023/01/16 16:05:40;;;;;;;;;;;5.80;99.90;;;;;;5095560;28;20341;-70
2023/01/16 16:08:06;;;;;;;;;;;5.80;99.90;;;;;;5095971;28;20279;-70
2023/01/16 16:13:18;;;;;;;;;;;5.80;99.90;;;;;;5091801;28;19915;-70